createdAt,value
2022-12-19T00:00:19.986Z,101642.63
2022-12-19T00:02:21.671Z,101639.16
2022-12-19T00:04:23.276Z,101640.63
2022-12-19T00:06:26.211Z,101631.00
2022-12-19T00:08:27.821Z,101626.69
2022-12-19T00:10:29.379Z,101623.13
2022-12-19T00:12:31.030Z,101631.19
2022-12-19T00:14:32.679Z,101626.88
2022-12-19T00:16:35.783Z,101626.69
2022-12-19T00:18:39.034Z,101625.03
2022-12-19T00:20:40.818Z,101625.03
2022-12-19T00:22:42.473Z,101619.56
2022-12-19T00:24:44.033Z,101612.03
2022-12-19T00:26:45.548Z,101616.25
2022-12-19T00:28:49.230Z,101613.41
2022-12-19T00:30:50.925Z,101609.38
2022-12-19T00:32:56.522Z,101601.88
2022-12-19T00:34:58.060Z,101592.91
2022-12-19T00:37:02.710Z,101602.44
2022-12-19T00:39:07.911Z,101595.09
2022-12-19T00:41:11.683Z,101597.94
2022-12-19T00:43:13.260Z,101597.13
2022-12-19T00:45:14.840Z,101590.44
2022-12-19T00:47:16.397Z,101589.88
2022-12-19T00:49:19.586Z,101584.56
2022-12-19T00:51:23.121Z,101576.78
2022-12-19T00:53:24.607Z,101575.59
2022-12-19T00:55:26.149Z,101582.56
2022-12-19T00:57:27.718Z,101578.06
2022-12-19T00:59:29.418Z,101579.06
2022-12-19T01:01:33.137Z,101578.88
2022-12-19T01:03:35.228Z,101578.69
2022-12-19T01:05:38.262Z,101574.03
2022-12-19T01:07:43.610Z,101579.69
2022-12-19T01:09:45.347Z,101572.38
2022-12-19T01:11:48.139Z,101577.69
2022-12-19T01:13:49.714Z,101582.59
2022-12-19T01:15:51.444Z,101577.28
2022-12-19T01:17:53.095Z,101580.59
2022-12-19T01:19:54.705Z,101592.50
2022-12-19T01:21:57.848Z,101588.91
2022-12-19T01:23:59.443Z,101593.28
2022-12-19T01:26:01.005Z,101589.56
2022-12-19T01:28:03.673Z,101585.31
2022-12-19T01:30:06.858Z,101579.78
2022-12-19T01:32:09.739Z,101580.81
2022-12-19T01:34:11.327Z,101584.97
2022-12-19T01:36:12.951Z,101582.31
2022-12-19T01:38:17.403Z,101586.72
2022-12-19T01:40:19.695Z,101582.22
2022-12-19T01:42:23.444Z,101585.97
2022-12-19T01:44:26.686Z,101580.50
2022-12-19T01:46:33.574Z,101576.25
2022-12-19T01:48:38.574Z,101577.25
2022-12-19T01:50:53.586Z,101568.59
2022-12-19T01:53:03.782Z,101560.34
2022-12-19T01:55:08.086Z,101561.34
2022-12-19T01:57:13.960Z,101541.59
2022-12-19T01:59:19.571Z,101544.91
2022-12-19T02:01:21.499Z,101547.19
2022-12-19T02:03:27.004Z,101539.22
2022-12-19T02:05:28.912Z,101535.25
2022-12-19T02:07:31.634Z,101538.41
2022-12-19T02:09:34.379Z,101541.59
2022-12-19T02:11:37.448Z,101543.09
2022-12-19T02:13:39.748Z,101539.50
2022-12-19T02:15:52.389Z,101548.13
2022-12-19T02:18:06.607Z,101545.06
2022-12-19T02:20:40.804Z,101544.47
2022-12-19T02:23:00.332Z,101551.88
2022-12-19T02:25:46.258Z,101547.59
2022-12-19T02:28:24.010Z,101544.94
2022-12-19T02:30:48.934Z,101533.91
2022-12-19T02:32:58.738Z,101526.59
2022-12-19T02:35:07.602Z,101520.91
2022-12-19T02:37:13.088Z,101518.41
2022-12-19T02:39:18.495Z,101517.59
2022-12-19T02:41:24.614Z,101517.22
2022-12-19T02:43:30.960Z,101523.59
2022-12-19T02:45:35.886Z,101527.91
2022-12-19T02:47:39.850Z,101528.72
2022-12-19T02:49:41.411Z,101527.75
2022-12-19T02:51:42.994Z,101528.44
2022-12-19T02:53:44.517Z,101534.19
2022-12-19T02:55:52.448Z,101524.84
2022-12-19T02:58:10.760Z,101521.97
2022-12-19T03:00:17.863Z,101520.44
2022-12-19T03:02:30.103Z,101533.66
2022-12-19T03:04:45.055Z,101533.97
2022-12-19T03:06:52.909Z,101538.72
2022-12-19T03:09:02.043Z,101542.16
2022-12-19T03:11:06.507Z,101537.66
2022-12-19T03:13:11.736Z,101539.50
2022-12-19T03:15:14.943Z,101547.28
2022-12-19T03:17:19.743Z,101546.84
2022-12-19T03:19:22.056Z,101547.22
2022-12-19T03:21:31.671Z,101541.81
2022-12-19T03:23:33.749Z,101551.28
2022-12-19T03:25:35.859Z,101553.16
2022-12-19T03:27:39.281Z,101541.25
2022-12-19T03:29:47.855Z,101540.00
2022-12-19T03:31:50.129Z,101540.00
2022-12-19T03:33:55.973Z,101535.94
2022-12-19T03:35:59.704Z,101526.47
2022-12-19T03:38:04.484Z,101530.13
2022-12-19T03:40:10.741Z,101532.41
2022-12-19T03:42:15.312Z,101527.78
2022-12-19T03:44:18.592Z,101527.22
2022-12-19T03:46:24.802Z,101526.06
2022-12-19T03:48:31.837Z,101529.34
2022-12-19T03:50:43.088Z,101518.94
2022-12-19T03:52:52.487Z,101520.16
2022-12-19T03:55:04.221Z,101524.31
2022-12-19T03:57:09.727Z,101519.00
2022-12-19T03:59:16.333Z,101520.47
2022-12-19T04:01:18.428Z,101523.78
2022-12-19T04:03:21.537Z,101527.44
2022-12-19T04:05:26.054Z,101512.72
2022-12-19T04:07:27.939Z,101521.59
2022-12-19T04:09:30.465Z,101528.09
2022-12-19T04:11:40.856Z,101522.34
2022-12-19T04:13:47.448Z,101517.06
2022-12-19T04:15:54.844Z,101515.44
2022-12-19T04:17:58.816Z,101514.63
2022-12-19T04:20:03.978Z,101526.94
2022-12-19T04:22:10.896Z,101526.13
2022-12-19T04:24:15.943Z,101520.41
2022-12-19T04:26:19.980Z,101526.75
2022-12-19T04:28:26.579Z,101529.19
2022-12-19T04:30:28.201Z,101514.72
2022-12-19T04:32:34.261Z,101522.88
2022-12-19T04:34:38.931Z,101523.94
2022-12-19T04:36:44.177Z,101523.13
2022-12-19T04:38:45.748Z,101526.59
2022-12-19T04:40:47.266Z,101521.47
2022-12-19T04:42:48.794Z,101512.91
2022-12-19T04:44:51.660Z,101503.72
2022-12-19T04:46:53.351Z,101498.38
2022-12-19T04:48:54.968Z,101494.72
2022-12-19T04:50:56.784Z,101493.50
2022-12-19T04:52:58.320Z,101498.44
2022-12-19T04:54:59.835Z,101494.75
2022-12-19T04:57:01.388Z,101484.09
2022-12-19T04:59:02.939Z,101492.72
2022-12-19T05:01:07.994Z,101489.03
2022-12-19T05:03:09.540Z,101482.88
2022-12-19T05:05:11.278Z,101481.06
2022-12-19T05:07:13.558Z,101470.00
2022-12-19T05:09:15.131Z,101475.56
2022-12-19T05:11:19.709Z,101479.88
2022-12-19T05:13:21.692Z,101478.84
2022-12-19T05:15:23.223Z,101472.94
2022-12-19T05:17:26.099Z,101469.03
2022-12-19T05:19:27.645Z,101459.41
2022-12-19T05:21:29.183Z,101463.72
2022-12-19T05:23:30.969Z,101465.59
2022-12-19T05:25:35.610Z,101461.28
2022-12-19T05:27:37.143Z,101463.09
2022-12-19T05:29:38.722Z,101462.91
2022-12-19T05:31:40.515Z,101452.91
2022-12-19T05:33:44.082Z,101456.38
2022-12-19T05:35:45.640Z,101451.25
2022-12-19T05:37:47.344Z,101458.66
2022-12-19T05:39:48.943Z,101459.84
2022-12-19T05:41:50.546Z,101467.81
2022-12-19T05:43:54.413Z,101459.28
2022-12-19T05:45:55.918Z,101462.53
2022-12-19T05:48:01.210Z,101461.50
2022-12-19T05:50:05.129Z,101468.28
2022-12-19T05:52:06.772Z,101468.47
2022-12-19T05:54:08.550Z,101470.50
2022-12-19T05:56:12.664Z,101478.50
2022-12-19T05:58:14.211Z,101473.00
2022-12-19T06:00:16.706Z,101474.44
2022-12-19T06:02:18.336Z,101482.19
2022-12-19T06:04:19.862Z,101484.47
2022-12-19T06:06:26.124Z,101489.63
2022-12-19T06:08:27.702Z,101484.06
2022-12-19T06:10:29.274Z,101476.28
2022-12-19T06:12:30.811Z,101476.28
2022-12-19T06:14:32.383Z,101478.78
2022-12-19T06:16:34.022Z,101481.03
2022-12-19T06:18:39.395Z,101485.13
2022-12-19T06:20:43.144Z,101471.59
2022-12-19T06:22:46.093Z,101465.66
2022-12-19T06:24:47.634Z,101466.47
2022-12-19T06:26:49.186Z,101477.94
2022-12-19T06:28:52.321Z,101464.84
2022-12-19T06:30:56.069Z,101458.91
2022-12-19T06:32:57.639Z,101459.13
2022-12-19T06:35:06.385Z,101466.50
2022-12-19T06:37:08.526Z,101466.50
2022-12-19T06:39:14.047Z,101474.69
2022-12-19T06:41:16.747Z,101465.28
2022-12-19T06:43:18.292Z,101474.28
2022-12-19T06:45:19.824Z,101460.78
2022-12-19T06:47:22.240Z,101468.16
2022-12-19T06:49:23.800Z,101462.84
2022-12-19T06:51:25.468Z,101472.47
2022-12-19T06:53:27.177Z,101469.81
2022-12-19T06:55:30.154Z,101471.41
2022-12-19T06:57:31.698Z,101471.41
2022-12-19T06:59:33.711Z,101471.44
2022-12-19T07:01:49.752Z,101468.38
2022-12-19T07:03:51.547Z,101464.69
2022-12-19T07:05:53.427Z,101464.69
2022-12-19T07:07:57.937Z,101463.06
2022-12-19T07:09:59.733Z,101455.91
2022-12-19T07:12:03.012Z,101464.31
2022-12-19T07:14:04.561Z,101458.38
2022-12-19T07:16:08.887Z,101457.75
2022-12-19T07:18:10.870Z,101467.16
2022-12-19T07:20:13.474Z,101467.56
2022-12-19T07:22:15.265Z,101470.47
2022-12-19T07:24:16.997Z,101460.41
2022-12-19T07:26:18.563Z,101456.94
2022-12-19T07:28:21.567Z,101462.47
2022-12-19T07:30:23.117Z,101468.00
2022-12-19T07:32:24.698Z,101461.84
2022-12-19T07:34:26.303Z,101457.75
2022-12-19T07:36:27.888Z,101457.16
2022-12-19T07:38:29.429Z,101465.13
2022-12-19T07:40:34.206Z,101464.53
2022-12-19T07:42:35.776Z,101469.84
2022-12-19T07:44:38.733Z,101468.63
2022-12-19T07:46:40.357Z,101466.56
2022-12-19T07:48:41.920Z,101471.69
2022-12-19T07:50:43.501Z,101458.34
2022-12-19T07:52:45.098Z,101468.63
2022-12-19T07:54:47.015Z,101474.16
2022-12-19T07:56:48.526Z,101473.94
2022-12-19T07:58:50.412Z,101474.16
2022-12-19T08:00:57.785Z,101473.94
2022-12-19T08:02:59.447Z,101473.94
2022-12-19T08:05:04.698Z,101465.56
2022-12-19T08:07:06.243Z,101462.88
2022-12-19T08:09:08.061Z,101464.13
2022-12-19T08:11:11.711Z,101472.72
2022-12-19T08:13:13.307Z,101470.47
2022-12-19T08:15:15.095Z,101469.25
2022-12-19T08:17:20.644Z,101468.00
2022-12-19T08:19:27.257Z,101474.56
2022-12-19T08:21:29.316Z,101471.69
2022-12-19T08:23:30.894Z,101466.56
2022-12-19T08:25:40.620Z,101471.50
2022-12-19T08:27:42.210Z,101463.91
2022-12-19T08:29:43.984Z,101470.88
2022-12-19T08:31:45.573Z,101471.69
2022-12-19T08:33:48.467Z,101466.75
2022-12-19T08:35:50.022Z,101463.06
2022-12-19T08:38:06.530Z,101471.06
2022-12-19T08:40:09.016Z,101468.63
2022-12-19T08:42:10.614Z,101466.34
2022-12-19T08:44:12.286Z,101461.03
2022-12-19T08:46:13.914Z,101464.72
2022-12-19T08:48:15.704Z,101456.94
2022-12-19T08:50:18.689Z,101453.88
2022-12-19T08:52:20.251Z,101454.66
2022-12-19T08:54:21.914Z,101452.41
2022-12-19T08:56:23.493Z,101438.50
2022-12-19T08:58:26.468Z,101442.19
2022-12-19T09:00:29.091Z,101440.94
2022-12-19T09:02:30.802Z,101439.91
2022-12-19T09:05:21.821Z,101445.44
2022-12-19T09:06:56.117Z,101446.25
2022-12-19T09:09:00.329Z,101439.69
2022-12-19T09:11:04.362Z,101436.84
2022-12-19T09:13:06.416Z,101437.88
2022-12-19T09:15:08.524Z,101429.25
2022-12-19T09:17:10.166Z,101432.53
2022-12-19T09:19:11.809Z,101425.13
2022-12-19T09:21:16.613Z,101420.22
2022-12-19T09:23:19.743Z,101412.38
2022-12-19T09:25:21.564Z,101424.28
2022-12-19T09:27:23.691Z,101432.91
2022-12-19T09:29:25.368Z,101434.13
2022-12-19T09:31:27.094Z,101436.38
2022-12-19T09:33:29.494Z,101450.72
2022-12-19T09:35:31.102Z,101436.34
2022-12-19T09:37:32.895Z,101428.34
2022-12-19T09:39:36.355Z,101430.00
2022-12-19T09:41:55.629Z,101426.50
2022-12-19T09:44:09.430Z,101426.91
2022-12-19T09:46:17.363Z,101429.16
2022-12-19T09:48:24.677Z,101431.41
2022-12-19T09:50:33.326Z,101430.16
2022-12-19T09:52:39.967Z,101431.00
2022-12-19T09:54:47.459Z,101431.00
2022-12-19T09:56:52.821Z,101432.41
2022-12-19T09:59:14.364Z,101426.84
2022-12-19T10:01:20.298Z,101422.75
2022-12-19T10:03:28.189Z,101421.31
2022-12-19T10:07:09.381Z,101420.06
2022-12-19T10:08:08.863Z,101417.16
2022-12-19T10:12:37.282Z,101417.16
2022-12-19T10:12:59.579Z,101419.63
2022-12-19T10:15:06.344Z,101415.94
2022-12-19T10:17:24.762Z,101412.03
2022-12-19T10:19:36.706Z,101410.16
2022-12-19T10:24:26.692Z,101403.72
2022-12-19T10:26:42.606Z,101386.03
2022-12-19T10:28:56.577Z,101382.34
2022-12-19T10:31:17.045Z,101379.91
2022-12-19T10:33:28.827Z,101380.94
2022-12-19T10:35:35.871Z,101379.66
2022-12-19T10:37:49.138Z,101383.56
2022-12-19T10:39:59.515Z,101386.59
2022-12-19T10:42:12.830Z,101390.91
2022-12-19T10:44:14.463Z,101373.47
2022-12-19T10:46:21.282Z,101370.78
2022-12-19T10:48:30.543Z,101384.75
2022-12-19T10:50:32.963Z,101379.03
2022-12-19T10:52:53.374Z,101371.78
2022-12-19T10:54:54.923Z,101370.31
2022-12-19T10:57:23.142Z,101352.00
2022-12-19T10:59:24.769Z,101342.78
2022-12-19T11:01:27.999Z,101334.53
2022-12-19T11:03:29.899Z,101340.25
2022-12-19T11:05:41.933Z,101334.25
2022-12-19T11:07:59.712Z,101337.31
2022-12-19T11:10:42.632Z,101340.16
2022-12-19T11:16:53.648Z,101342.97
2022-12-19T11:19:16.732Z,101354.09
2022-12-19T11:25:20.259Z,101342.13
2022-12-19T11:29:27.192Z,101343.41
2022-12-19T11:29:39.998Z,101349.56
2022-12-19T11:30:09.511Z,101352.59
2022-12-19T11:30:48.002Z,101347.06
2022-12-19T11:32:39.634Z,101328.91
2022-12-19T11:34:49.717Z,101315.38
2022-12-19T11:36:55.677Z,101309.66
2022-12-19T11:38:57.389Z,101313.13
2022-12-19T11:41:04.956Z,101310.22
2022-12-19T11:45:48.103Z,101311.66
2022-12-19T11:47:55.385Z,101310.38
2022-12-19T11:50:02.692Z,101323.53
2022-12-19T11:52:36.812Z,101307.06
2022-12-19T11:54:49.976Z,101306.25
2022-12-19T11:56:53.172Z,101294.53
2022-12-19T11:59:00.046Z,101297.19
2022-12-19T12:01:12.410Z,101305.78
2022-12-19T12:03:55.954Z,101301.22
2022-12-19T12:06:11.780Z,101308.78
2022-12-19T12:09:39.808Z,101306.13
2022-12-19T12:14:34.626Z,101288.81
2022-12-19T12:23:31.865Z,101291.63
2022-12-19T12:24:56.029Z,101278.84
2022-12-19T12:31:04.009Z,101276.34
2022-12-19T12:31:10.258Z,101277.75
2022-12-19T12:31:49.077Z,101275.44
2022-12-19T12:31:52.227Z,101271.34
2022-12-19T12:32:06.513Z,101279.81
2022-12-19T12:35:56.307Z,101262.81
2022-12-19T12:39:44.081Z,101261.22
2022-12-19T12:42:01.533Z,101256.03
2022-12-19T12:44:08.467Z,101263.13
2022-12-19T12:46:15.748Z,101263.72
2022-12-19T12:48:25.119Z,101268.63
2022-12-19T12:50:28.321Z,101274.34
2022-12-19T12:52:34.021Z,101277.38
2022-12-19T12:54:39.132Z,101277.16
2022-12-19T12:56:42.086Z,101271.00
2022-12-19T12:59:07.411Z,101274.84
2022-12-19T13:01:11.750Z,101267.72
2022-12-19T13:03:18.186Z,101261.69
2022-12-19T13:05:53.405Z,101258.81
2022-12-19T13:07:57.400Z,101255.88
2022-12-19T13:10:18.687Z,101257.88
2022-12-19T13:12:25.956Z,101262.78
2022-12-19T13:14:45.865Z,101256.38
2022-12-19T13:16:53.402Z,101256.97
2022-12-19T13:19:04.442Z,101259.06
2022-12-19T13:21:09.418Z,101248.81
2022-12-19T13:23:33.399Z,101258.47
2022-12-19T13:25:50.819Z,101251.72
2022-12-19T13:27:57.555Z,101250.88
2022-12-19T13:30:14.645Z,101252.75
2022-12-19T13:32:16.708Z,101246.00
2022-12-19T13:34:19.117Z,101253.81
2022-12-19T13:39:49.477Z,101258.31
2022-12-19T13:39:59.033Z,101257.72
2022-12-19T13:42:00.709Z,101254.94
2022-12-19T13:44:02.309Z,101255.19
2022-12-19T13:46:05.979Z,101260.75
2022-12-19T13:48:27.737Z,101253.75
2022-12-19T13:50:32.918Z,101257.84
2022-12-19T13:52:38.580Z,101257.47
2022-12-19T13:54:47.382Z,101250.03
2022-12-19T13:56:49.004Z,101251.53
2022-12-19T13:58:54.696Z,101254.78
2022-12-19T14:01:04.265Z,101248.63
2022-12-19T14:03:15.304Z,101248.41
2022-12-19T14:06:09.671Z,101251.53
2022-12-19T14:07:53.042Z,101262.81
2022-12-19T14:11:27.843Z,101257.47
2022-12-19T14:12:27.797Z,101259.09
2022-12-19T14:15:02.111Z,101254.00
2022-12-19T14:17:14.140Z,101260.97
2022-12-19T14:19:20.967Z,101254.34
2022-12-19T14:22:05.735Z,101254.34
2022-12-19T14:23:47.461Z,101246.75
2022-12-19T14:28:22.205Z,101241.19
2022-12-19T14:28:29.232Z,101236.31
2022-12-19T14:30:34.959Z,101231.19
2022-12-19T14:33:39.754Z,101241.88
2022-12-19T14:36:06.196Z,101235.13
2022-12-19T14:38:36.093Z,101233.13
2022-12-19T14:39:59.294Z,101231.88
2022-12-19T14:42:04.915Z,101220.34
2022-12-19T14:52:34.686Z,101221.72
2022-12-19T14:54:06.516Z,101217.44
2022-12-19T14:54:12.864Z,101220.09
2022-12-19T14:54:22.848Z,101220.34
2022-12-19T14:55:17.221Z,101217.66
2022-12-19T14:58:57.164Z,101221.03
2022-12-19T15:01:09.265Z,101226.81
2022-12-19T15:03:19.164Z,101229.03
2022-12-19T15:05:21.458Z,101231.47
2022-12-19T15:07:25.659Z,101241.03
2022-12-19T15:11:03.605Z,101246.38
2022-12-19T15:12:10.004Z,101234.47
2022-12-19T15:14:57.439Z,101236.56
2022-12-19T15:16:46.652Z,101227.94
2022-12-19T15:18:48.404Z,101233.53
2022-12-19T15:20:50.961Z,101235.75
2022-12-19T15:22:52.847Z,101230.41
2022-12-19T15:24:54.373Z,101221.00
2022-12-19T15:26:57.251Z,101224.22
2022-12-19T15:28:59.280Z,101227.13
2022-12-19T15:31:05.505Z,101225.94
2022-12-19T15:33:12.786Z,101220.03
2022-12-19T15:35:16.398Z,101221.06
2022-12-19T15:37:18.167Z,101220.47
2022-12-19T15:39:23.596Z,101214.28
2022-12-19T15:41:25.291Z,101205.72
2022-12-19T15:44:02.381Z,101197.69
2022-12-19T15:45:57.450Z,101200.81
2022-12-19T15:47:59.418Z,101194.88
2022-12-19T15:50:02.073Z,101205.13
2022-12-19T15:52:13.923Z,101198.34
2022-12-19T15:54:47.147Z,101203.69
2022-12-19T15:56:39.535Z,101202.09
2022-12-19T15:58:42.559Z,101201.47
2022-12-19T16:00:50.512Z,101201.47
2022-12-19T16:03:23.206Z,101205.19
2022-12-19T16:05:16.919Z,101205.78
2022-12-19T16:07:21.045Z,101213.81
2022-12-19T16:09:24.752Z,101208.66
2022-12-19T16:11:26.379Z,101213.91
2022-12-19T16:13:31.024Z,101202.38
2022-12-19T16:15:34.891Z,101192.16
2022-12-19T16:17:38.178Z,101185.53
2022-12-19T16:19:39.769Z,101180.84
2022-12-19T16:21:41.320Z,101187.00
2022-12-19T16:23:43.001Z,101180.25
2022-12-19T16:25:46.777Z,101187.25
2022-12-19T16:27:54.164Z,101194.22
2022-12-19T16:29:56.383Z,101187.59
2022-12-19T16:31:59.497Z,101174.84
2022-12-19T16:34:01.102Z,101174.25
2022-12-19T16:36:04.655Z,101178.53
2022-12-19T16:38:06.586Z,101180.78
2022-12-19T16:40:13.870Z,101185.53
2022-12-19T16:42:17.440Z,101178.31
2022-12-19T16:44:21.476Z,101171.13
2022-12-19T16:46:23.645Z,101173.31
2022-12-19T16:48:28.593Z,101178.66
2022-12-19T16:50:31.128Z,101181.94
2022-12-19T16:52:34.984Z,101186.25
2022-12-19T16:54:40.573Z,101183.13
2022-12-19T16:56:45.980Z,101183.38
2022-12-19T16:58:47.559Z,101175.44
2022-12-19T17:00:50.183Z,101167.16
2022-12-19T17:02:54.145Z,101168.22
2022-12-19T17:04:57.220Z,101180.97
2022-12-19T17:06:59.856Z,101177.50
2022-12-19T17:09:01.397Z,101170.28
2022-12-19T17:11:03.364Z,101169.13
2022-12-19T17:13:04.978Z,101164.59
2022-12-19T17:15:16.716Z,101170.97
2022-12-19T17:17:18.349Z,101167.69
2022-12-19T17:19:23.187Z,101163.88
2022-12-19T17:21:26.112Z,101159.13
2022-12-19T17:23:29.594Z,101160.28
2022-12-19T17:25:31.173Z,101155.16
2022-12-19T17:27:32.701Z,101152.13
2022-12-19T17:29:34.224Z,101152.34
2022-12-19T17:31:37.047Z,101156.06
2022-12-19T17:33:40.400Z,101163.25
2022-12-19T17:35:42.904Z,101147.47
2022-12-19T17:37:52.634Z,101153.63
2022-12-19T17:39:54.209Z,101158.16
2022-12-19T17:41:58.750Z,101161.41
2022-12-19T17:44:00.359Z,101160.16
2022-12-19T17:46:02.169Z,101168.97
2022-12-19T17:48:07.479Z,101161.63
2022-12-19T17:50:19.804Z,101166.19
2022-12-19T17:52:21.346Z,101165.94
2022-12-19T17:54:24.254Z,101165.59
2022-12-19T17:56:25.810Z,101171.13
2022-12-19T17:58:27.422Z,101174.28
2022-12-19T18:00:32.154Z,101169.56
2022-12-19T18:02:34.185Z,101166.91
2022-12-19T18:04:36.115Z,101159.72
2022-12-19T18:06:37.795Z,101155.66
2022-12-19T18:08:39.372Z,101161.78
2022-12-19T18:10:42.272Z,101169.00
2022-12-19T18:12:43.829Z,101166.69
2022-12-19T18:14:45.421Z,101161.94
2022-12-19T18:16:50.135Z,101157.75
2022-12-19T18:18:51.802Z,101152.41
2022-12-19T18:20:53.848Z,101152.41
2022-12-19T18:22:55.848Z,101158.81
2022-12-19T18:24:57.600Z,101153.09
2022-12-19T18:27:00.507Z,101159.41
2022-12-19T18:29:02.081Z,101153.25
2022-12-19T18:31:14.805Z,101163.25
2022-12-19T18:33:20.587Z,101159.56
2022-12-19T18:35:28.453Z,101163.63
2022-12-19T18:37:32.926Z,101154.56
2022-12-19T18:39:34.508Z,101157.00
2022-12-19T18:41:36.357Z,101159.00
2022-12-19T18:43:39.239Z,101143.19
2022-12-19T18:45:42.929Z,101144.59
2022-12-19T18:47:51.308Z,101135.34
2022-12-19T18:49:53.171Z,101137.53
2022-12-19T18:51:54.711Z,101145.34
2022-12-19T18:53:56.269Z,101144.06
2022-12-19T18:55:58.043Z,101138.47
2022-12-19T18:57:59.663Z,101134.16
2022-12-19T19:00:03.337Z,101142.66
2022-12-19T19:02:23.616Z,101134.06
2022-12-19T19:04:28.725Z,101143.34
2022-12-19T19:06:35.775Z,101135.19
2022-12-19T19:08:39.288Z,101137.25
2022-12-19T19:10:44.865Z,101129.72
2022-12-19T19:12:46.564Z,101130.16
2022-12-19T19:14:48.066Z,101122.00
2022-12-19T19:16:51.611Z,101129.56
2022-12-19T19:18:55.927Z,101133.03
2022-12-19T19:21:01.184Z,101135.28
2022-12-19T19:23:03.656Z,101130.88
2022-12-19T19:25:05.994Z,101141.56
2022-12-19T19:27:07.547Z,101133.69
2022-12-19T19:29:09.104Z,101133.78
2022-12-19T19:31:14.289Z,101134.16
2022-12-19T19:33:20.810Z,101137.06
2022-12-19T19:35:23.197Z,101133.09
2022-12-19T19:37:24.752Z,101134.50
2022-12-19T19:39:27.404Z,101135.53
2022-12-19T19:41:28.962Z,101137.75
2022-12-19T19:43:32.865Z,101137.53
2022-12-19T19:45:41.186Z,101132.56
2022-12-19T19:47:44.647Z,101137.44
2022-12-19T19:49:47.600Z,101140.13
2022-12-19T19:51:49.341Z,101135.44
2022-12-19T19:53:51.076Z,101138.28
2022-12-19T19:55:56.252Z,101134.56
2022-12-19T19:57:57.801Z,101138.38
2022-12-19T19:59:59.581Z,101140.63
2022-12-19T20:02:01.318Z,101127.84
2022-12-19T20:04:03.331Z,101133.31
2022-12-19T20:06:06.788Z,101131.81
2022-12-19T20:08:08.370Z,101137.31
2022-12-19T20:10:10.916Z,101129.50
2022-12-19T20:12:12.500Z,101136.91
2022-12-19T20:14:14.011Z,101137.97
2022-12-19T20:16:17.821Z,101141.47
2022-12-19T20:18:19.521Z,101136.22
2022-12-19T20:20:21.058Z,101136.34
2022-12-19T20:22:24.179Z,101144.25
2022-12-19T20:24:25.864Z,101142.16
2022-12-19T20:26:27.566Z,101138.09
2022-12-19T20:28:30.138Z,101155.56
2022-12-19T20:30:31.894Z,101145.69
2022-12-19T20:32:33.514Z,101148.72
2022-12-19T20:34:35.084Z,101143.25
2022-12-19T20:36:37.109Z,101140.13
2022-12-19T20:38:40.322Z,101150.69
2022-12-19T20:40:41.905Z,101156.75
2022-12-19T20:42:43.553Z,101140.25
2022-12-19T20:44:45.180Z,101162.25
2022-12-19T20:46:51.222Z,101155.00
2022-12-19T20:48:52.915Z,101162.59
2022-12-19T20:50:55.980Z,101151.44
2022-12-19T20:52:57.589Z,101156.31
2022-12-19T20:55:00.583Z,101164.25
2022-12-19T20:57:02.138Z,101166.94
2022-12-19T20:59:03.821Z,101161.94
2022-12-19T21:01:07.433Z,101165.19
2022-12-19T21:05:32.919Z,101165.53
2022-12-19T21:07:34.462Z,101163.22
2022-12-19T21:09:35.994Z,101161.13
2022-12-19T21:11:38.845Z,101164.38
2022-12-19T21:13:40.464Z,101162.25
2022-12-19T21:15:42.400Z,101156.09
2022-12-19T21:17:44.585Z,101151.22
2022-12-19T21:19:46.157Z,101146.91
2022-12-19T21:21:47.713Z,101146.31
2022-12-19T21:23:49.927Z,101138.06
2022-12-19T21:25:51.578Z,101136.44
2022-12-19T21:27:54.453Z,101145.28
2022-12-19T21:29:56.104Z,101147.50
2022-12-19T21:31:57.674Z,101148.19
2022-12-19T21:34:00.959Z,101150.88
2022-12-19T21:36:06.970Z,101147.72
2022-12-19T21:38:08.520Z,101148.06
2022-12-19T21:40:10.863Z,101150.28
2022-12-19T21:42:12.441Z,101148.41
2022-12-19T21:44:15.356Z,101158.22
2022-12-19T21:46:17.407Z,101149.34
2022-12-19T21:48:18.956Z,101141.66
2022-12-19T21:50:20.592Z,101142.59
2022-12-19T21:52:22.175Z,101148.53
2022-12-19T21:54:23.802Z,101147.81
2022-12-19T21:56:27.193Z,101141.19
2022-12-19T21:58:28.732Z,101140.13
2022-12-19T22:00:31.622Z,101143.75
2022-12-19T22:02:33.334Z,101147.59
2022-12-19T22:04:35.075Z,101154.56
2022-12-19T22:06:37.809Z,101149.81
2022-12-19T22:08:39.472Z,101147.34
2022-12-19T22:10:40.972Z,101149.81
2022-12-19T22:12:42.520Z,101158.19
2022-12-19T22:14:45.235Z,101147.22
2022-12-19T22:16:48.391Z,101152.91
2022-12-19T22:18:49.981Z,101149.44
2022-12-19T22:20:51.523Z,101152.09
2022-12-19T22:22:53.008Z,101144.53
2022-12-19T22:24:54.520Z,101153.63
2022-12-19T22:26:56.447Z,101143.72
2022-12-19T22:28:58.615Z,101150.72
2022-12-19T22:31:05.147Z,101148.25
2022-12-19T22:33:08.072Z,101147.91
2022-12-19T22:35:09.756Z,101153.88
2022-12-19T22:37:11.367Z,101151.97
2022-12-19T22:39:14.424Z,101148.50
2022-12-19T22:41:17.282Z,101146.88
2022-12-19T22:43:18.850Z,101136.50
2022-12-19T22:45:20.441Z,101136.81
2022-12-19T22:47:21.971Z,101129.25
2022-12-19T22:49:24.931Z,101136.81
2022-12-19T22:51:28.173Z,101126.34
2022-12-19T22:53:29.793Z,101118.88
2022-12-19T22:55:31.351Z,101114.91
2022-12-19T22:57:32.949Z,101114.19
2022-12-19T22:59:34.665Z,101110.81
2022-12-19T23:01:38.246Z,101113.81
2022-12-19T23:03:40.160Z,101112.53
2022-12-19T23:05:47.043Z,101111.00
2022-12-19T23:07:53.156Z,101113.22
2022-12-19T23:09:54.738Z,101122.53
2022-12-19T23:11:56.650Z,101117.41
2022-12-19T23:13:58.837Z,101114.72
2022-12-19T23:16:00.633Z,101127.66
2022-12-19T23:18:02.222Z,101124.16
2022-12-19T23:20:04.033Z,101127.41
2022-12-19T23:22:06.998Z,101123.81
2022-12-19T23:24:13.000Z,101121.06
2022-12-19T23:26:16.593Z,101117.78
2022-12-19T23:28:18.319Z,101115.13
2022-12-19T23:30:19.909Z,101111.06
2022-12-19T23:32:21.575Z,101114.66
2022-12-19T23:34:23.296Z,101122.97
2022-12-19T23:37:00.362Z,101114.91
2022-12-19T23:38:48.295Z,101117.25
2022-12-19T23:40:49.929Z,101112.13
2022-12-19T23:42:51.684Z,101114.81
2022-12-19T23:44:53.280Z,101109.69
2022-12-19T23:47:02.285Z,101110.50
2022-12-19T23:49:04.858Z,101099.19
2022-12-19T23:51:08.818Z,101107.72
2022-12-19T23:53:16.468Z,101108.19
2022-12-19T23:55:19.393Z,101103.88
2022-12-19T23:57:20.959Z,101094.47
2022-12-19T23:59:22.569Z,101088.28
